SDM6446 ULMK-ULLI
Flight info
| Callsign | SDM6446 |
|---|---|
| Flight time | 1h 27m |
| Altitude | 34000 |
| Route | N0450F340 ARMAD T747 MOVIT N153 BOGBI M856 GIKUR T458 BEPOL |
| Aircraft | SU95/M-V/N |
Departure
| Time | 2026-05-04 19:58 |
|---|---|
| Airport | Kirovsk-Apatity Airport (ULMK) |
Arrival
| Time | 2026-05-04 21:26 |
|---|---|
| Airport | Pulkovo Airport (ULLI) |
| Time | Latitude | Longitude | Altitude | Speed | Heading |
|---|---|---|---|---|---|
| 2026-05-04 19:43 | 67.46030 | 33.58418 | 511 ft | 0 kts | 307° |
| 2026-05-04 19:52 | 67.46031 | 33.58417 | 511 ft | 1 kts | 307° |
| 2026-05-04 19:52 | 67.46043 | 33.58379 | 509 ft | 3 kts | 321° |
| 2026-05-04 19:52 | 67.46062 | 33.58370 | 509 ft | 3 kts | 10° |
| 2026-05-04 19:52 | 67.46083 | 33.58389 | 509 ft | 4 kts | 27° |
| 2026-05-04 19:53 | 67.46107 | 33.58427 | 509 ft | 4 kts | 44° |
| 2026-05-04 19:53 | 67.46133 | 33.58486 | 509 ft | 6 kts | 40° |
| 2026-05-04 19:53 | 67.46165 | 33.58555 | 509 ft | 7 kts | 39° |
| 2026-05-04 19:53 | 67.46202 | 33.58634 | 509 ft | 7 kts | 40° |
| 2026-05-04 19:54 | 67.46213 | 33.58738 | 509 ft | 7 kts | 97° |
| 2026-05-04 19:54 | 67.46186 | 33.58871 | 507 ft | 10 kts | 128° |
| 2026-05-04 19:54 | 67.46137 | 33.59033 | 506 ft | 12 kts | 128° |
| 2026-05-04 19:54 | 67.46085 | 33.59203 | 504 ft | 13 kts | 128° |
| 2026-05-04 19:55 | 67.46031 | 33.59382 | 504 ft | 13 kts | 128° |
| 2026-05-04 19:55 | 67.45970 | 33.59581 | 503 ft | 15 kts | 128° |
| 2026-05-04 19:55 | 67.45902 | 33.59809 | 497 ft | 17 kts | 128° |
| 2026-05-04 19:55 | 67.45826 | 33.60062 | 496 ft | 18 kts | 128° |
| 2026-05-04 19:56 | 67.45750 | 33.60317 | 492 ft | 18 kts | 129° |
| 2026-05-04 19:56 | 67.45680 | 33.60515 | 497 ft | 14 kts | 137° |
| 2026-05-04 19:56 | 67.45612 | 33.60668 | 487 ft | 12 kts | 159° |
| 2026-05-04 19:56 | 67.45590 | 33.60782 | 489 ft | 4 kts | 28° |
| 2026-05-04 19:57 | 67.45600 | 33.60782 | 492 ft | 0 kts | 335° |
| 2026-05-04 19:57 | 67.45604 | 33.60775 | 489 ft | 6 kts | 333° |
| 2026-05-04 19:57 | 67.45694 | 33.60518 | 495 ft | 32 kts | 309° |
| 2026-05-04 19:57 | 67.45861 | 33.59734 | 501 ft | 80 kts | 290° |
| 2026-05-04 19:58 | 67.46375 | 33.58194 | 514 ft | 145 kts | 309° |
| 2026-05-04 19:58 | 67.47078 | 33.55848 | 914 ft | 166 kts | 309° |
| 2026-05-04 19:58 | 67.47818 | 33.53506 | 1753 ft | 170 kts | 308° |
| 2026-05-04 19:58 | 67.48459 | 33.50895 | 2379 ft | 174 kts | 279° |
| 2026-05-04 19:59 | 67.48428 | 33.47780 | 2905 ft | 176 kts | 242° |
| 2026-05-04 19:59 | 67.47628 | 33.45343 | 3373 ft | 185 kts | 205° |
| 2026-05-04 19:59 | 67.46349 | 33.44774 | 3951 ft | 196 kts | 171° |
| 2026-05-04 19:59 | 67.45023 | 33.46122 | 4560 ft | 210 kts | 155° |
| 2026-05-04 20:00 | 67.43724 | 33.47927 | 5352 ft | 218 kts | 153° |
| 2026-05-04 20:00 | 67.42324 | 33.49930 | 5853 ft | 241 kts | 153° |
| 2026-05-04 20:00 | 67.40787 | 33.52083 | 6459 ft | 257 kts | 153° |
| 2026-05-04 20:00 | 67.39212 | 33.54239 | 7356 ft | 262 kts | 154° |
| 2026-05-04 20:01 | 67.37581 | 33.56436 | 8305 ft | 266 kts | 154° |
| 2026-05-04 20:01 | 67.35922 | 33.58650 | 9253 ft | 271 kts | 155° |
| 2026-05-04 20:01 | 67.34225 | 33.60906 | 10057 ft | 281 kts | 155° |
| 2026-05-04 20:01 | 67.32412 | 33.63303 | 10426 ft | 304 kts | 155° |
| 2026-05-04 20:02 | 67.30481 | 33.65855 | 11065 ft | 315 kts | 155° |
| 2026-05-04 20:02 | 67.28498 | 33.68358 | 11926 ft | 319 kts | 162° |
| 2026-05-04 20:02 | 67.26320 | 33.69371 | 12763 ft | 319 kts | 184° |
| 2026-05-04 20:02 | 67.24156 | 33.68192 | 13588 ft | 319 kts | 205° |
| 2026-05-04 20:03 | 67.22273 | 33.65183 | 14403 ft | 320 kts | 216° |
| 2026-05-04 20:03 | 67.20452 | 33.61846 | 15244 ft | 322 kts | 217° |
| 2026-05-04 20:03 | 67.18620 | 33.58475 | 16071 ft | 325 kts | 217° |
| 2026-05-04 20:03 | 67.16756 | 33.55132 | 16881 ft | 329 kts | 212° |
| 2026-05-04 20:04 | 67.14661 | 33.52699 | 17680 ft | 335 kts | 199° |
| 2026-05-04 20:04 | 67.12347 | 33.51692 | 18389 ft | 342 kts | 185° |
| 2026-05-04 20:04 | 67.09953 | 33.51825 | 19119 ft | 345 kts | 182° |
| 2026-05-04 20:04 | 67.07545 | 33.52025 | 19821 ft | 347 kts | 183° |
| 2026-05-04 20:05 | 67.05120 | 33.52217 | 20516 ft | 349 kts | 184° |
| 2026-05-04 20:05 | 67.02685 | 33.52398 | 21205 ft | 352 kts | 184° |
| 2026-05-04 20:05 | 67.00265 | 33.52573 | 21882 ft | 354 kts | 184° |
| 2026-05-04 20:05 | 66.97796 | 33.52747 | 22566 ft | 356 kts | 185° |
| 2026-05-04 20:06 | 66.95308 | 33.52922 | 23233 ft | 359 kts | 185° |
| 2026-05-04 20:06 | 66.92803 | 33.53097 | 23781 ft | 362 kts | 185° |
| 2026-05-04 20:06 | 66.90278 | 33.53272 | 24308 ft | 364 kts | 185° |
| 2026-05-04 20:06 | 66.87739 | 33.53450 | 24851 ft | 366 kts | 186° |
| 2026-05-04 20:07 | 66.85177 | 33.53628 | 25347 ft | 369 kts | 186° |
| 2026-05-04 20:07 | 66.82599 | 33.53807 | 25876 ft | 372 kts | 186° |
| 2026-05-04 20:07 | 66.80002 | 33.53987 | 26372 ft | 374 kts | 186° |
| 2026-05-04 20:07 | 66.77390 | 33.54168 | 26867 ft | 377 kts | 186° |
| 2026-05-04 20:08 | 66.75649 | 33.54288 | 27179 ft | 379 kts | 187° |
| 2026-05-04 20:08 | 66.73004 | 33.54469 | 27640 ft | 382 kts | 187° |
| 2026-05-04 20:08 | 66.70342 | 33.54651 | 28084 ft | 384 kts | 187° |
| 2026-05-04 20:08 | 66.67658 | 33.54835 | 28519 ft | 387 kts | 187° |
| 2026-05-04 20:09 | 66.64955 | 33.55019 | 28938 ft | 390 kts | 187° |
| 2026-05-04 20:09 | 66.62233 | 33.55205 | 29350 ft | 392 kts | 187° |
| 2026-05-04 20:09 | 66.59499 | 33.55390 | 29743 ft | 395 kts | 187° |
| 2026-05-04 20:09 | 66.56732 | 33.55576 | 30024 ft | 399 kts | 187° |
| 2026-05-04 20:10 | 66.53944 | 33.55762 | 30312 ft | 403 kts | 187° |
| 2026-05-04 20:10 | 66.51122 | 33.55952 | 30601 ft | 407 kts | 186° |
| 2026-05-04 20:10 | 66.48274 | 33.56144 | 30887 ft | 411 kts | 186° |
| 2026-05-04 20:10 | 66.45438 | 33.56335 | 31173 ft | 414 kts | 186° |
| 2026-05-04 20:11 | 66.42545 | 33.56530 | 31448 ft | 418 kts | 186° |
| 2026-05-04 20:11 | 66.39626 | 33.56726 | 31733 ft | 421 kts | 186° |
| 2026-05-04 20:11 | 66.36704 | 33.56643 | 31993 ft | 419 kts | 191° |
| 2026-05-04 20:11 | 66.33807 | 33.55872 | 32270 ft | 419 kts | 194° |
| 2026-05-04 20:12 | 66.30911 | 33.54946 | 32611 ft | 420 kts | 194° |
| 2026-05-04 20:12 | 66.28012 | 33.54016 | 32971 ft | 421 kts | 193° |
| 2026-05-04 20:12 | 66.25106 | 33.53094 | 33336 ft | 421 kts | 193° |
| 2026-05-04 20:12 | 66.22195 | 33.52180 | 33644 ft | 422 kts | 193° |
| 2026-05-04 20:13 | 66.19282 | 33.51275 | 33937 ft | 422 kts | 193° |
| 2026-05-04 20:13 | 66.16366 | 33.50374 | 34207 ft | 422 kts | 193° |
| 2026-05-04 20:13 | 66.13449 | 33.49475 | 34469 ft | 423 kts | 193° |
| 2026-05-04 20:13 | 66.10527 | 33.48578 | 34723 ft | 423 kts | 193° |
| 2026-05-04 20:14 | 66.07600 | 33.47681 | 34970 ft | 424 kts | 192° |
| 2026-05-04 20:14 | 66.04668 | 33.46785 | 35206 ft | 425 kts | 192° |
| 2026-05-04 20:14 | 66.01729 | 33.45930 | 35425 ft | 426 kts | 192° |
| 2026-05-04 20:15 | 65.95774 | 33.44424 | 35663 ft | 433 kts | 191° |
| 2026-05-04 20:15 | 65.92775 | 33.43678 | 35865 ft | 434 kts | 191° |
| 2026-05-04 20:15 | 65.89770 | 33.42921 | 36071 ft | 435 kts | 191° |
| 2026-05-04 20:15 | 65.86756 | 33.42154 | 36267 ft | 435 kts | 191° |
| 2026-05-04 20:16 | 65.83741 | 33.41384 | 36466 ft | 436 kts | 191° |
| 2026-05-04 20:16 | 65.80720 | 33.40612 | 36645 ft | 437 kts | 191° |
| 2026-05-04 20:16 | 65.77696 | 33.39841 | 36832 ft | 437 kts | 191° |
| 2026-05-04 20:16 | 65.74667 | 33.39070 | 37011 ft | 438 kts | 191° |
| 2026-05-04 20:17 | 65.71629 | 33.38300 | 37182 ft | 439 kts | 191° |
| 2026-05-04 20:17 | 65.68595 | 33.37533 | 37357 ft | 439 kts | 191° |
| 2026-05-04 20:17 | 65.65553 | 33.36766 | 37517 ft | 440 kts | 190° |
| 2026-05-04 20:18 | 65.59459 | 33.35235 | 37547 ft | 439 kts | 190° |
| 2026-05-04 20:18 | 65.53417 | 33.33725 | 37545 ft | 439 kts | 191° |
| 2026-05-04 20:19 | 65.47333 | 33.32210 | 37546 ft | 439 kts | 191° |
| 2026-05-04 20:19 | 65.41254 | 33.30704 | 37542 ft | 439 kts | 191° |
| 2026-05-04 20:20 | 65.35166 | 33.29203 | 37540 ft | 440 kts | 191° |
| 2026-05-04 20:20 | 65.29081 | 33.27709 | 37537 ft | 440 kts | 191° |
| 2026-05-04 20:21 | 65.22990 | 33.26221 | 37535 ft | 440 kts | 191° |
| 2026-05-04 20:21 | 65.13853 | 33.24002 | 37534 ft | 440 kts | 191° |
| 2026-05-04 20:22 | 65.07759 | 33.22531 | 37532 ft | 440 kts | 191° |
| 2026-05-04 20:22 | 65.01665 | 33.21067 | 37530 ft | 440 kts | 191° |
| 2026-05-04 20:23 | 64.95563 | 33.19607 | 37528 ft | 440 kts | 191° |
| 2026-05-04 20:23 | 64.89463 | 33.18154 | 37532 ft | 440 kts | 191° |
| 2026-05-04 20:24 | 64.83404 | 33.16717 | 37532 ft | 440 kts | 191° |
| 2026-05-04 20:24 | 64.77308 | 33.15279 | 37532 ft | 440 kts | 191° |
| 2026-05-04 20:25 | 64.71212 | 33.13846 | 37527 ft | 440 kts | 191° |
| 2026-05-04 20:25 | 64.65095 | 33.12692 | 37535 ft | 441 kts | 189° |
| 2026-05-04 20:26 | 64.58965 | 33.11732 | 37526 ft | 441 kts | 189° |
| 2026-05-04 20:26 | 64.52853 | 33.10729 | 37529 ft | 440 kts | 189° |
| 2026-05-04 20:27 | 64.46738 | 33.09705 | 37526 ft | 440 kts | 189° |
| 2026-05-04 20:27 | 64.40675 | 33.08692 | 37524 ft | 440 kts | 189° |
| 2026-05-04 20:28 | 64.34570 | 33.07678 | 37520 ft | 440 kts | 189° |
| 2026-05-04 20:28 | 64.28465 | 33.06668 | 37524 ft | 439 kts | 189° |
| 2026-05-04 20:29 | 64.22363 | 33.05663 | 37523 ft | 439 kts | 189° |
| 2026-05-04 20:29 | 64.16268 | 33.04665 | 37520 ft | 439 kts | 189° |
| 2026-05-04 20:30 | 64.10176 | 33.03670 | 37525 ft | 439 kts | 189° |
| 2026-05-04 20:30 | 64.04080 | 33.02680 | 37529 ft | 439 kts | 189° |
| 2026-05-04 20:31 | 63.97995 | 33.01696 | 37523 ft | 439 kts | 189° |
| 2026-05-04 20:31 | 63.91903 | 33.00714 | 37520 ft | 438 kts | 189° |
| 2026-05-04 20:32 | 63.85818 | 32.99739 | 37520 ft | 438 kts | 189° |
| 2026-05-04 20:32 | 63.79771 | 32.98774 | 37517 ft | 438 kts | 189° |
| 2026-05-04 20:33 | 63.74172 | 32.97883 | 37517 ft | 438 kts | 189° |
| 2026-05-04 20:33 | 63.68090 | 32.96920 | 37520 ft | 438 kts | 189° |
| 2026-05-04 20:34 | 63.62007 | 32.95960 | 37522 ft | 438 kts | 189° |
| 2026-05-04 20:34 | 63.55925 | 32.95005 | 37520 ft | 438 kts | 189° |
| 2026-05-04 20:35 | 63.49847 | 32.94055 | 37523 ft | 438 kts | 189° |
| 2026-05-04 20:35 | 63.43769 | 32.93109 | 37519 ft | 438 kts | 189° |
| 2026-05-04 20:36 | 63.37691 | 32.92167 | 37521 ft | 438 kts | 189° |
| 2026-05-04 20:36 | 63.31612 | 32.91229 | 37524 ft | 438 kts | 189° |
| 2026-05-04 20:37 | 63.25535 | 32.90295 | 37524 ft | 438 kts | 189° |
| 2026-05-04 20:37 | 63.19458 | 32.89365 | 37529 ft | 438 kts | 189° |
| 2026-05-04 20:38 | 63.13381 | 32.88439 | 37529 ft | 438 kts | 189° |
| 2026-05-04 20:38 | 63.07348 | 32.87523 | 37527 ft | 437 kts | 189° |
| 2026-05-04 20:39 | 63.01273 | 32.86605 | 37529 ft | 437 kts | 189° |
| 2026-05-04 20:39 | 62.95204 | 32.85692 | 37533 ft | 437 kts | 189° |
| 2026-05-04 20:40 | 62.89142 | 32.84783 | 37534 ft | 437 kts | 189° |
| 2026-05-04 20:40 | 62.83079 | 32.83878 | 37531 ft | 436 kts | 189° |
| 2026-05-04 20:41 | 62.77025 | 32.82979 | 37529 ft | 436 kts | 189° |
| 2026-05-04 20:41 | 62.70975 | 32.82083 | 37528 ft | 436 kts | 189° |
| 2026-05-04 20:42 | 62.64920 | 32.81189 | 37532 ft | 435 kts | 189° |
| 2026-05-04 20:42 | 62.58879 | 32.80302 | 37527 ft | 435 kts | 189° |
| 2026-05-04 20:43 | 62.52880 | 32.79425 | 37530 ft | 434 kts | 189° |
| 2026-05-04 20:43 | 62.46845 | 32.78546 | 37529 ft | 434 kts | 189° |
| 2026-05-04 20:44 | 62.40817 | 32.77672 | 37527 ft | 434 kts | 189° |
| 2026-05-04 20:44 | 62.34793 | 32.76802 | 37533 ft | 434 kts | 189° |
| 2026-05-04 20:45 | 62.28766 | 32.75934 | 37533 ft | 434 kts | 189° |
| 2026-05-04 20:45 | 62.22743 | 32.75071 | 37534 ft | 434 kts | 189° |
| 2026-05-04 20:46 | 62.16720 | 32.74211 | 37534 ft | 434 kts | 189° |
| 2026-05-04 20:46 | 62.10694 | 32.73354 | 37538 ft | 434 kts | 189° |
| 2026-05-04 20:47 | 62.04664 | 32.72500 | 37545 ft | 434 kts | 189° |
| 2026-05-04 20:47 | 61.98636 | 32.71650 | 37548 ft | 434 kts | 189° |
| 2026-05-04 20:48 | 61.92605 | 32.70803 | 37554 ft | 434 kts | 189° |
| 2026-05-04 20:48 | 61.86612 | 32.69964 | 37557 ft | 434 kts | 189° |
| 2026-05-04 20:49 | 61.80580 | 32.69123 | 37559 ft | 435 kts | 189° |
| 2026-05-04 20:49 | 61.74542 | 32.68285 | 37562 ft | 435 kts | 189° |
| 2026-05-04 20:50 | 61.68506 | 32.67450 | 37566 ft | 435 kts | 189° |
| 2026-05-04 20:50 | 61.62470 | 32.66619 | 37570 ft | 434 kts | 189° |
| 2026-05-04 20:51 | 61.56438 | 32.65791 | 37579 ft | 435 kts | 189° |
| 2026-05-04 20:51 | 61.50406 | 32.64967 | 37581 ft | 434 kts | 189° |
| 2026-05-04 20:52 | 61.44379 | 32.64147 | 37578 ft | 434 kts | 189° |
| 2026-05-04 20:52 | 61.38351 | 32.63329 | 37584 ft | 434 kts | 189° |
| 2026-05-04 20:53 | 61.32333 | 32.62515 | 37583 ft | 434 kts | 189° |
| 2026-05-04 20:53 | 61.26313 | 32.61703 | 37586 ft | 434 kts | 189° |
| 2026-05-04 20:54 | 61.20335 | 32.60893 | 37589 ft | 426 kts | 189° |
| 2026-05-04 20:54 | 61.14437 | 32.60085 | 37376 ft | 423 kts | 189° |
| 2026-05-04 20:55 | 61.11497 | 32.59684 | 36788 ft | 423 kts | 190° |
| 2026-05-04 20:55 | 61.08567 | 32.59284 | 36002 ft | 423 kts | 190° |
| 2026-05-04 20:55 | 61.05657 | 32.58887 | 35229 ft | 425 kts | 190° |
| 2026-05-04 20:55 | 61.02709 | 32.58487 | 34579 ft | 423 kts | 191° |
| 2026-05-04 20:56 | 60.99784 | 32.58095 | 34013 ft | 420 kts | 191° |
| 2026-05-04 20:56 | 60.96879 | 32.57705 | 33399 ft | 417 kts | 191° |
| 2026-05-04 20:56 | 60.93992 | 32.57295 | 32644 ft | 416 kts | 191° |
| 2026-05-04 20:56 | 60.91103 | 32.56869 | 31851 ft | 416 kts | 191° |
| 2026-05-04 20:57 | 60.88214 | 32.56443 | 31063 ft | 417 kts | 190° |
| 2026-05-04 20:57 | 60.85314 | 32.56020 | 30316 ft | 418 kts | 190° |
| 2026-05-04 20:57 | 60.82422 | 32.55604 | 29754 ft | 415 kts | 189° |
| 2026-05-04 20:57 | 60.79558 | 32.55198 | 29141 ft | 410 kts | 189° |
| 2026-05-04 20:58 | 60.76719 | 32.54795 | 28434 ft | 408 kts | 189° |
| 2026-05-04 20:58 | 60.73909 | 32.54398 | 27957 ft | 401 kts | 189° |
| 2026-05-04 20:58 | 60.72092 | 32.54067 | 27758 ft | 391 kts | 192° |
| 2026-05-04 20:58 | 60.69444 | 32.53172 | 27303 ft | 382 kts | 196° |
| 2026-05-04 20:59 | 60.66855 | 32.52166 | 26841 ft | 375 kts | 196° |
| 2026-05-04 20:59 | 60.64315 | 32.51177 | 26394 ft | 368 kts | 196° |
| 2026-05-04 20:59 | 60.61819 | 32.50196 | 25968 ft | 362 kts | 197° |
| 2026-05-04 20:59 | 60.59364 | 32.49225 | 25521 ft | 356 kts | 197° |
| 2026-05-04 21:00 | 60.56948 | 32.48283 | 25262 ft | 354 kts | 197° |
| 2026-05-04 21:00 | 60.54508 | 32.47336 | 24985 ft | 359 kts | 197° |
| 2026-05-04 21:00 | 60.52043 | 32.46389 | 24507 ft | 360 kts | 196° |
| 2026-05-04 21:00 | 60.49589 | 32.45460 | 24042 ft | 358 kts | 196° |
| 2026-05-04 21:01 | 60.47155 | 32.44546 | 23580 ft | 353 kts | 196° |
| 2026-05-04 21:01 | 60.44756 | 32.43648 | 23125 ft | 348 kts | 196° |
| 2026-05-04 21:01 | 60.42392 | 32.42764 | 22619 ft | 342 kts | 197° |
| 2026-05-04 21:01 | 60.40075 | 32.41899 | 22194 ft | 335 kts | 197° |
| 2026-05-04 21:02 | 60.37804 | 32.41051 | 21751 ft | 329 kts | 197° |
| 2026-05-04 21:02 | 60.35573 | 32.40218 | 21330 ft | 323 kts | 197° |
| 2026-05-04 21:02 | 60.33381 | 32.39400 | 20903 ft | 318 kts | 197° |
| 2026-05-04 21:02 | 60.31227 | 32.38596 | 20480 ft | 313 kts | 197° |
| 2026-05-04 21:03 | 60.29105 | 32.37806 | 20079 ft | 309 kts | 197° |
| 2026-05-04 21:03 | 60.27011 | 32.37022 | 19669 ft | 310 kts | 197° |
| 2026-05-04 21:03 | 60.24864 | 32.36215 | 19251 ft | 319 kts | 197° |
| 2026-05-04 21:03 | 60.22661 | 32.35385 | 18816 ft | 324 kts | 197° |
| 2026-05-04 21:04 | 60.20447 | 32.34565 | 18383 ft | 322 kts | 197° |
| 2026-05-04 21:04 | 60.18256 | 32.33760 | 17949 ft | 318 kts | 197° |
| 2026-05-04 21:04 | 60.16089 | 32.32965 | 17489 ft | 314 kts | 197° |
| 2026-05-04 21:04 | 60.13960 | 32.32184 | 17072 ft | 308 kts | 197° |
| 2026-05-04 21:05 | 60.11866 | 32.31414 | 16657 ft | 304 kts | 197° |
| 2026-05-04 21:05 | 60.09803 | 32.30652 | 16256 ft | 299 kts | 198° |
| 2026-05-04 21:05 | 60.07894 | 32.29300 | 15852 ft | 287 kts | 214° |
| 2026-05-04 21:05 | 60.06322 | 32.26903 | 15487 ft | 283 kts | 230° |
| 2026-05-04 21:06 | 60.05159 | 32.23573 | 15153 ft | 302 kts | 245° |
| 2026-05-04 21:06 | 60.04428 | 32.19602 | 14801 ft | 304 kts | 251° |
| 2026-05-04 21:06 | 60.03760 | 32.15621 | 14450 ft | 299 kts | 251° |
| 2026-05-04 21:06 | 60.03099 | 32.11695 | 14104 ft | 298 kts | 251° |
| 2026-05-04 21:07 | 60.02436 | 32.07798 | 13923 ft | 290 kts | 250° |
| 2026-05-04 21:07 | 60.01809 | 32.04128 | 13798 ft | 274 kts | 250° |
| 2026-05-04 21:07 | 60.01207 | 32.00619 | 13578 ft | 262 kts | 250° |
| 2026-05-04 21:07 | 60.00612 | 31.97168 | 12964 ft | 263 kts | 250° |
| 2026-05-04 21:08 | 60.00012 | 31.93705 | 12358 ft | 264 kts | 250° |
| 2026-05-04 21:08 | 59.99421 | 31.90292 | 12043 ft | 254 kts | 250° |
| 2026-05-04 21:08 | 59.98844 | 31.86961 | 11888 ft | 256 kts | 250° |
| 2026-05-04 21:08 | 59.98257 | 31.83581 | 11609 ft | 257 kts | 250° |
| 2026-05-04 21:09 | 59.97677 | 31.80247 | 11323 ft | 252 kts | 250° |
| 2026-05-04 21:09 | 59.97121 | 31.76926 | 11123 ft | 263 kts | 251° |
| 2026-05-04 21:09 | 59.96522 | 31.73240 | 10885 ft | 287 kts | 251° |
| 2026-05-04 21:09 | 59.95916 | 31.69496 | 10793 ft | 279 kts | 251° |
| 2026-05-04 21:10 | 59.95330 | 31.65901 | 10693 ft | 265 kts | 251° |
| 2026-05-04 21:10 | 59.94774 | 31.62508 | 10569 ft | 249 kts | 251° |
| 2026-05-04 21:10 | 59.94248 | 31.59322 | 10455 ft | 234 kts | 251° |
| 2026-05-04 21:10 | 59.93752 | 31.56335 | 10356 ft | 219 kts | 251° |
| 2026-05-04 21:11 | 59.93290 | 31.53555 | 10269 ft | 204 kts | 251° |
| 2026-05-04 21:11 | 59.92857 | 31.50957 | 10172 ft | 190 kts | 251° |
| 2026-05-04 21:11 | 59.92452 | 31.48531 | 9970 ft | 181 kts | 251° |
| 2026-05-04 21:11 | 59.92057 | 31.46168 | 9717 ft | 181 kts | 251° |
| 2026-05-04 21:12 | 59.91662 | 31.43802 | 9521 ft | 182 kts | 251° |
| 2026-05-04 21:12 | 59.91258 | 31.41392 | 9386 ft | 181 kts | 251° |
| 2026-05-04 21:12 | 59.90865 | 31.39044 | 9255 ft | 181 kts | 251° |
| 2026-05-04 21:12 | 59.90461 | 31.36633 | 9123 ft | 181 kts | 251° |
| 2026-05-04 21:13 | 59.90072 | 31.34309 | 9060 ft | 179 kts | 252° |
| 2026-05-04 21:13 | 59.89674 | 31.31942 | 8937 ft | 180 kts | 252° |
| 2026-05-04 21:13 | 59.89276 | 31.29579 | 8797 ft | 180 kts | 252° |
| 2026-05-04 21:13 | 59.88880 | 31.27226 | 8664 ft | 179 kts | 252° |
| 2026-05-04 21:14 | 59.88483 | 31.24875 | 8539 ft | 179 kts | 252° |
| 2026-05-04 21:14 | 59.88086 | 31.22524 | 8382 ft | 180 kts | 252° |
| 2026-05-04 21:14 | 59.87689 | 31.20179 | 8141 ft | 178 kts | 252° |
| 2026-05-04 21:14 | 59.87295 | 31.17848 | 7882 ft | 178 kts | 252° |
| 2026-05-04 21:15 | 59.86899 | 31.15514 | 7621 ft | 178 kts | 252° |
| 2026-05-04 21:15 | 59.86503 | 31.13181 | 7365 ft | 178 kts | 252° |
| 2026-05-04 21:15 | 59.86109 | 31.10859 | 7101 ft | 177 kts | 252° |
| 2026-05-04 21:15 | 59.85714 | 31.08538 | 6837 ft | 177 kts | 252° |
| 2026-05-04 21:16 | 59.85318 | 31.06221 | 6582 ft | 176 kts | 252° |
| 2026-05-04 21:16 | 59.84924 | 31.03908 | 6330 ft | 176 kts | 252° |
| 2026-05-04 21:16 | 59.84530 | 31.01603 | 6068 ft | 176 kts | 252° |
| 2026-05-04 21:16 | 59.84149 | 30.99381 | 5862 ft | 164 kts | 252° |
| 2026-05-04 21:17 | 59.83785 | 30.97260 | 5486 ft | 161 kts | 252° |
| 2026-05-04 21:17 | 59.83422 | 30.95142 | 5311 ft | 165 kts | 253° |
| 2026-05-04 21:17 | 59.83059 | 30.93019 | 5078 ft | 163 kts | 253° |
| 2026-05-04 21:17 | 59.82687 | 30.90854 | 4833 ft | 164 kts | 253° |
| 2026-05-04 21:18 | 59.82320 | 30.88717 | 4588 ft | 163 kts | 253° |
| 2026-05-04 21:18 | 59.81955 | 30.86594 | 4341 ft | 162 kts | 253° |
| 2026-05-04 21:18 | 59.81593 | 30.84497 | 4098 ft | 163 kts | 253° |
| 2026-05-04 21:18 | 59.81226 | 30.82379 | 3905 ft | 161 kts | 253° |
| 2026-05-04 21:19 | 59.80859 | 30.80266 | 3780 ft | 163 kts | 254° |
| 2026-05-04 21:19 | 59.80491 | 30.78135 | 3647 ft | 163 kts | 254° |
| 2026-05-04 21:19 | 59.80087 | 30.75996 | 3442 ft | 167 kts | 250° |
| 2026-05-04 21:19 | 59.79575 | 30.73932 | 3297 ft | 167 kts | 247° |
| 2026-05-04 21:20 | 59.79064 | 30.71879 | 3130 ft | 166 kts | 248° |
| 2026-05-04 21:20 | 59.78566 | 30.69860 | 3002 ft | 158 kts | 248° |
| 2026-05-04 21:20 | 59.78089 | 30.67925 | 2767 ft | 154 kts | 249° |
| 2026-05-04 21:20 | 59.77611 | 30.65974 | 2641 ft | 159 kts | 249° |
| 2026-05-04 21:21 | 59.77134 | 30.64037 | 2512 ft | 154 kts | 249° |
| 2026-05-04 21:21 | 59.76660 | 30.62119 | 2502 ft | 156 kts | 249° |
| 2026-05-04 21:21 | 59.76240 | 30.60149 | 2489 ft | 154 kts | 259° |
| 2026-05-04 21:21 | 59.76151 | 30.58062 | 2506 ft | 152 kts | 275° |
| 2026-05-04 21:22 | 59.76312 | 30.55996 | 2437 ft | 147 kts | 283° |
| 2026-05-04 21:22 | 59.76557 | 30.54117 | 2233 ft | 136 kts | 286° |
| 2026-05-04 21:22 | 59.76822 | 30.52341 | 1945 ft | 141 kts | 287° |
| 2026-05-04 21:22 | 59.77102 | 30.50497 | 1724 ft | 137 kts | 287° |
| 2026-05-04 21:23 | 59.77381 | 30.48671 | 1545 ft | 137 kts | 287° |
| 2026-05-04 21:23 | 59.77630 | 30.46914 | 1409 ft | 128 kts | 285° |
| 2026-05-04 21:23 | 59.77866 | 30.45201 | 1251 ft | 130 kts | 286° |
| 2026-05-04 21:23 | 59.78132 | 30.43460 | 1113 ft | 133 kts | 288° |
| 2026-05-04 21:24 | 59.78418 | 30.41693 | 967 ft | 138 kts | 287° |
| 2026-05-04 21:24 | 59.78682 | 30.39862 | 840 ft | 138 kts | 286° |
| 2026-05-04 21:24 | 59.78953 | 30.38049 | 695 ft | 135 kts | 287° |
| 2026-05-04 21:24 | 59.79228 | 30.36268 | 580 ft | 134 kts | 285° |
| 2026-05-04 21:25 | 59.79488 | 30.34465 | 419 ft | 139 kts | 286° |
| 2026-05-04 21:25 | 59.79769 | 30.32585 | 289 ft | 144 kts | 285° |
| 2026-05-04 21:25 | 59.80049 | 30.30718 | 118 ft | 140 kts | 286° |
| 2026-05-04 21:25 | 59.80320 | 30.28929 | 75 ft | 127 kts | 285° |
| 2026-05-04 21:26 | 59.80528 | 30.27470 | 77 ft | 77 kts | 285° |
| 2026-05-04 21:26 | 59.80627 | 30.26726 | 77 ft | 42 kts | 281° |
| 2026-05-04 21:26 | 59.80621 | 30.26577 | 75 ft | 2 kts | 160° |
| 2026-05-04 21:26 | 59.80570 | 30.26605 | 72 ft | 11 kts | 173° |
| 2026-05-04 21:27 | 59.80506 | 30.26578 | 78 ft | 8 kts | 206° |
| 2026-05-04 21:27 | 59.80462 | 30.26554 | 77 ft | 6 kts | 145° |
| 2026-05-04 21:27 | 59.80433 | 30.26619 | 77 ft | 7 kts | 118° |
| 2026-05-04 21:27 | 59.80414 | 30.26723 | 75 ft | 9 kts | 108° |
| 2026-05-04 21:28 | 59.80395 | 30.26852 | 78 ft | 10 kts | 97° |
| 2026-05-04 21:28 | 59.80374 | 30.27000 | 70 ft | 12 kts | 105° |
| 2026-05-04 21:28 | 59.80351 | 30.27157 | 78 ft | 11 kts | 107° |
| 2026-05-04 21:28 | 59.80319 | 30.27222 | 78 ft | 1 kts | 181° |
| 2026-05-04 21:29 | 59.80305 | 30.27221 | 78 ft | 3 kts | 182° |
| 2026-05-04 21:29 | 59.80280 | 30.27237 | 74 ft | 4 kts | 135° |
| 2026-05-04 21:29 | 59.80265 | 30.27298 | 76 ft | 6 kts | 110° |
| 2026-05-04 21:29 | 59.80256 | 30.27348 | 71 ft | 0 kts | 109° |
| 2026-05-04 21:30 | 59.80260 | 30.27323 | 78 ft | 2 kts | 106° |
| 2026-05-04 21:30 | 59.80258 | 30.27292 | 73 ft | 2 kts | 53° |
| 2026-05-04 21:31 | 59.80229 | 30.27262 | 77 ft | 2 kts | 17° |
| 2026-05-04 21:31 | 59.80226 | 30.27261 | 77 ft | 0 kts | 17° |